Gaastra, Michigan
Current Conditions -  °F | °C
As of 3:54 PM on Friday 26 Dec 2014 (Local Time) from KIMT Reporting Station
Overcast Overcast  
Wind Chill: 33°   Ceiling: 800
Heat Index: 33°   Visibility: 9mi
Dew Point: 30°   Wind: 3mph
Humidity: 89%   Direction: 10°N
Pressure: 29.99"   Gusts: NA
Location:  46.06°N, 88.61°W
Report Text: KIMT 262154Z AUTO 01003KT 9SM BKN008 OVC014 01/M01 A2999 RMK AO2 SLP169 T00061011
Loading
Personal Weather Stations






























Interactive Weather Map New forecast layout! Learn more

10-Day Weather Forecast

Advertisements
Track Severe Weather on mobile